Aviation Digital Data Service (ADDS)

Output produced by METARs form (1307 UTC 03 August 2015)
found at http://www.aviationweather.gov/adds/metars/
 
KJFK 031124Z 0312/0418 21007KT P6SM SCT250 
     FM031500 19013KT P6SM FEW070 SCT250 
     FM031800 19016G22KT P6SM SCT070 
     FM032000 19021G26KT P6SM SCT070 
     FM040200 19016KT P6SM SCT070 BKN200 
     FM040600 21010KT P6SM SCT070 BKN150 
     FM041300 20014KT P6SM BKN200